sensor_id;sensor_type;location;lat;lon;timestamp;P1;durP1;ratioP1;P2;durP2;ratioP2
58657;SDS011;44428;45.630;13.786;2022-09-09T00:05:00;13.88;;;10.00;;
58657;SDS011;44428;45.630;13.786;2022-09-09T00:07:43;14.05;;;10.60;;
58657;SDS011;44428;45.630;13.786;2022-09-09T00:12:59;12.23;;;8.98;;
58657;SDS011;44428;45.630;13.786;2022-09-09T00:16:00;16.38;;;8.05;;
58657;SDS011;44428;45.630;13.786;2022-09-09T00:18:49;12.85;;;6.93;;
58657;SDS011;44428;45.630;13.786;2022-09-09T00:21:17;9.38;;;5.28;;
58657;SDS011;44428;45.630;13.786;2022-09-09T00:23:53;9.23;;;5.53;;
58657;SDS011;44428;45.630;13.786;2022-09-09T00:29:03;7.65;;;4.28;;
58657;SDS011;44428;45.630;13.786;2022-09-09T00:31:40;9.35;;;4.57;;
58657;SDS011;44428;45.630;13.786;2022-09-09T00:34:12;7.70;;;3.95;;
58657;SDS011;44428;45.630;13.786;2022-09-09T00:36:42;8.27;;;3.83;;
58657;SDS011;44428;45.630;13.786;2022-09-09T00:39:12;7.93;;;3.80;;
58657;SDS011;44428;45.630;13.786;2022-09-09T00:47:43;9.98;;;4.45;;
58657;SDS011;44428;45.630;13.786;2022-09-09T00:58:23;7.88;;;4.07;;
58657;SDS011;44428;45.630;13.786;2022-09-09T01:03:37;9.38;;;3.88;;
58657;SDS011;44428;45.630;13.786;2022-09-09T01:11:23;7.40;;;3.47;;
58657;SDS011;44428;45.630;13.786;2022-09-09T01:17:01;6.15;;;3.38;;
58657;SDS011;44428;45.630;13.786;2022-09-09T01:22:26;7.05;;;2.88;;
58657;SDS011;44428;45.630;13.786;2022-09-09T01:27:58;8.48;;;3.47;;
58657;SDS011;44428;45.630;13.786;2022-09-09T01:30:31;8.57;;;3.30;;
58657;SDS011;44428;45.630;13.786;2022-09-09T01:33:00;8.32;;;3.55;;
58657;SDS011;44428;45.630;13.786;2022-09-09T01:35:45;9.95;;;4.10;;
58657;SDS011;44428;45.630;13.786;2022-09-09T01:38:17;9.93;;;3.60;;
58657;SDS011;44428;45.630;13.786;2022-09-09T01:40:44;8.02;;;2.95;;
58657;SDS011;44428;45.630;13.786;2022-09-09T01:43:10;9.75;;;2.92;;
58657;SDS011;44428;45.630;13.786;2022-09-09T01:45:36;8.30;;;3.17;;
58657;SDS011;44428;45.630;13.786;2022-09-09T01:48:04;9.18;;;3.50;;
58657;SDS011;44428;45.630;13.786;2022-09-09T01:50:42;8.68;;;3.40;;
58657;SDS011;44428;45.630;13.786;2022-09-09T01:53:08;9.60;;;3.85;;
58657;SDS011;44428;45.630;13.786;2022-09-09T01:55:38;9.02;;;3.63;;
58657;SDS011;44428;45.630;13.786;2022-09-09T01:58:17;7.88;;;3.47;;
58657;SDS011;44428;45.630;13.786;2022-09-09T02:00:55;9.27;;;3.38;;
58657;SDS011;44428;45.630;13.786;2022-09-09T02:03:47;8.38;;;3.72;;
58657;SDS011;44428;45.630;13.786;2022-09-09T02:06:35;8.57;;;3.35;;
58657;SDS011;44428;45.630;13.786;2022-09-09T02:09:14;7.88;;;3.22;;
58657;SDS011;44428;45.630;13.786;2022-09-09T02:11:44;6.23;;;3.10;;
58657;SDS011;44428;45.630;13.786;2022-09-09T02:14:23;7.45;;;3.10;;
58657;SDS011;44428;45.630;13.786;2022-09-09T02:16:57;5.60;;;2.70;;
58657;SDS011;44428;45.630;13.786;2022-09-09T02:19:46;6.65;;;2.50;;
58657;SDS011;44428;45.630;13.786;2022-09-09T02:22:27;5.07;;;2.17;;
58657;SDS011;44428;45.630;13.786;2022-09-09T02:24:57;4.72;;;2.05;;
58657;SDS011;44428;45.630;13.786;2022-09-09T02:27:27;4.82;;;2.17;;
58657;SDS011;44428;45.630;13.786;2022-09-09T02:29:53;5.65;;;1.95;;
58657;SDS011;44428;45.630;13.786;2022-09-09T02:32:34;5.10;;;2.10;;
58657;SDS011;44428;45.630;13.786;2022-09-09T02:35:10;4.93;;;1.93;;
58657;SDS011;44428;45.630;13.786;2022-09-09T02:37:41;6.80;;;1.90;;
58657;SDS011;44428;45.630;13.786;2022-09-09T02:40:10;5.10;;;1.70;;
58657;SDS011;44428;45.630;13.786;2022-09-09T02:42:42;3.85;;;1.63;;
58657;SDS011;44428;45.630;13.786;2022-09-09T02:45:10;4.18;;;1.80;;
58657;SDS011;44428;45.630;13.786;2022-09-09T02:50:17;5.22;;;1.65;;
58657;SDS011;44428;45.630;13.786;2022-09-09T02:58:08;3.17;;;1.48;;
58657;SDS011;44428;45.630;13.786;2022-09-09T03:00:37;4.20;;;1.50;;
58657;SDS011;44428;45.630;13.786;2022-09-09T03:03:08;3.78;;;1.70;;
58657;SDS011;44428;45.630;13.786;2022-09-09T03:05:35;3.92;;;1.60;;
58657;SDS011;44428;45.630;13.786;2022-09-09T03:08:02;3.67;;;1.40;;
58657;SDS011;44428;45.630;13.786;2022-09-09T03:10:28;3.42;;;1.25;;
58657;SDS011;44428;45.630;13.786;2022-09-09T03:12:54;5.78;;;1.55;;
58657;SDS011;44428;45.630;13.786;2022-09-09T03:15:21;4.97;;;1.33;;
58657;SDS011;44428;45.630;13.786;2022-09-09T03:17:47;4.45;;;1.40;;
58657;SDS011;44428;45.630;13.786;2022-09-09T03:20:12;3.83;;;1.50;;
58657;SDS011;44428;45.630;13.786;2022-09-09T03:22:38;5.10;;;1.50;;
58657;SDS011;44428;45.630;13.786;2022-09-09T03:25:05;4.15;;;1.65;;
58657;SDS011;44428;45.630;13.786;2022-09-09T03:27:32;4.57;;;1.35;;
58657;SDS011;44428;45.630;13.786;2022-09-09T03:29:59;3.17;;;1.30;;
58657;SDS011;44428;45.630;13.786;2022-09-09T03:32:29;4.63;;;1.30;;
58657;SDS011;44428;45.630;13.786;2022-09-09T03:34:56;3.60;;;1.50;;
58657;SDS011;44428;45.630;13.786;2022-09-09T03:37:23;4.22;;;1.52;;
58657;SDS011;44428;45.630;13.786;2022-09-09T03:39:49;3.22;;;1.40;;
58657;SDS011;44428;45.630;13.786;2022-09-09T03:42:16;5.85;;;1.50;;
58657;SDS011;44428;45.630;13.786;2022-09-09T03:44:45;4.28;;;1.25;;
58657;SDS011;44428;45.630;13.786;2022-09-09T03:47:17;3.30;;;1.35;;
58657;SDS011;44428;45.630;13.786;2022-09-09T03:49:54;2.92;;;1.13;;
58657;SDS011;44428;45.630;13.786;2022-09-09T03:52:20;3.17;;;1.20;;
58657;SDS011;44428;45.630;13.786;2022-09-09T03:54:47;4.38;;;1.48;;
58657;SDS011;44428;45.630;13.786;2022-09-09T03:57:13;4.55;;;1.50;;
58657;SDS011;44428;45.630;13.786;2022-09-09T03:59:42;4.68;;;1.73;;
58657;SDS011;44428;45.630;13.786;2022-09-09T04:02:08;3.70;;;1.45;;
58657;SDS011;44428;45.630;13.786;2022-09-09T04:04:34;4.95;;;1.70;;
58657;SDS011;44428;45.630;13.786;2022-09-09T04:07:00;3.65;;;1.48;;
58657;SDS011;44428;45.630;13.786;2022-09-09T04:09:26;6.90;;;2.35;;
58657;SDS011;44428;45.630;13.786;2022-09-09T04:11:52;5.45;;;1.98;;
58657;SDS011;44428;45.630;13.786;2022-09-09T04:14:19;6.05;;;2.53;;
58657;SDS011;44428;45.630;13.786;2022-09-09T04:16:45;4.82;;;2.20;;
58657;SDS011;44428;45.630;13.786;2022-09-09T04:19:12;10.18;;;3.25;;
58657;SDS011;44428;45.630;13.786;2022-09-09T04:21:40;5.80;;;2.08;;
58657;SDS011;44428;45.630;13.786;2022-09-09T04:24:07;7.55;;;2.00;;
58657;SDS011;44428;45.630;13.786;2022-09-09T04:26:34;11.43;;;2.45;;
58657;SDS011;44428;45.630;13.786;2022-09-09T04:29:02;6.93;;;1.95;;
58657;SDS011;44428;45.630;13.786;2022-09-09T04:31:29;6.13;;;2.03;;
58657;SDS011;44428;45.630;13.786;2022-09-09T04:33:55;7.75;;;2.60;;
58657;SDS011;44428;45.630;13.786;2022-09-09T04:36:21;8.40;;;2.25;;
58657;SDS011;44428;45.630;13.786;2022-09-09T04:38:48;7.47;;;2.80;;
58657;SDS011;44428;45.630;13.786;2022-09-09T04:41:15;6.22;;;2.38;;
58657;SDS011;44428;45.630;13.786;2022-09-09T04:43:43;9.13;;;2.47;;
58657;SDS011;44428;45.630;13.786;2022-09-09T04:46:09;4.60;;;1.98;;
58657;SDS011;44428;45.630;13.786;2022-09-09T04:48:35;8.07;;;2.38;;
58657;SDS011;44428;45.630;13.786;2022-09-09T04:51:03;10.98;;;3.30;;
58657;SDS011;44428;45.630;13.786;2022-09-09T04:53:32;7.05;;;2.92;;
58657;SDS011;44428;45.630;13.786;2022-09-09T04:56:04;6.18;;;2.58;;
58657;SDS011;44428;45.630;13.786;2022-09-09T04:58:35;6.20;;;2.90;;
58657;SDS011;44428;45.630;13.786;2022-09-09T05:01:07;6.50;;;2.83;;
58657;SDS011;44428;45.630;13.786;2022-09-09T05:03:36;9.50;;;3.08;;
58657;SDS011;44428;45.630;13.786;2022-09-09T05:06:05;8.23;;;2.72;;
58657;SDS011;44428;45.630;13.786;2022-09-09T05:08:38;5.85;;;2.35;;
58657;SDS011;44428;45.630;13.786;2022-09-09T05:11:16;9.23;;;2.70;;
58657;SDS011;44428;45.630;13.786;2022-09-09T05:13:51;6.18;;;2.90;;
58657;SDS011;44428;45.630;13.786;2022-09-09T05:16:19;7.80;;;2.50;;
58657;SDS011;44428;45.630;13.786;2022-09-09T05:18:45;7.30;;;3.05;;
58657;SDS011;44428;45.630;13.786;2022-09-09T05:21:12;6.07;;;3.05;;
58657;SDS011;44428;45.630;13.786;2022-09-09T05:23:40;9.55;;;3.05;;
58657;SDS011;44428;45.630;13.786;2022-09-09T05:26:07;8.20;;;2.80;;
58657;SDS011;44428;45.630;13.786;2022-09-09T05:31:03;5.78;;;3.03;;
58657;SDS011;44428;45.630;13.786;2022-09-09T05:33:33;10.40;;;3.28;;
58657;SDS011;44428;45.630;13.786;2022-09-09T05:38:29;11.55;;;3.60;;
58657;SDS011;44428;45.630;13.786;2022-09-09T05:40:55;10.30;;;3.08;;
58657;SDS011;44428;45.630;13.786;2022-09-09T05:43:22;8.02;;;2.83;;
58657;SDS011;44428;45.630;13.786;2022-09-09T05:46:11;6.95;;;3.13;;
58657;SDS011;44428;45.630;13.786;2022-09-09T05:48:40;6.95;;;3.05;;
58657;SDS011;44428;45.630;13.786;2022-09-09T05:51:08;8.70;;;2.67;;
58657;SDS011;44428;45.630;13.786;2022-09-09T05:53:41;6.13;;;2.70;;
58657;SDS011;44428;45.630;13.786;2022-09-09T05:56:15;6.88;;;2.78;;
58657;SDS011;44428;45.630;13.786;2022-09-09T05:58:45;8.40;;;2.83;;
58657;SDS011;44428;45.630;13.786;2022-09-09T06:03:43;5.40;;;2.20;;
58657;SDS011;44428;45.630;13.786;2022-09-09T06:06:14;9.02;;;2.58;;
58657;SDS011;44428;45.630;13.786;2022-09-09T06:08:43;4.43;;;2.30;;
58657;SDS011;44428;45.630;13.786;2022-09-09T06:11:13;8.77;;;2.58;;
58657;SDS011;44428;45.630;13.786;2022-09-09T06:13:44;7.43;;;2.80;;
58657;SDS011;44428;45.630;13.786;2022-09-09T06:16:12;7.50;;;2.35;;
58657;SDS011;44428;45.630;13.786;2022-09-09T06:18:42;8.13;;;2.30;;
58657;SDS011;44428;45.630;13.786;2022-09-09T06:21:13;5.63;;;2.40;;
58657;SDS011;44428;45.630;13.786;2022-09-09T06:23:43;9.00;;;2.83;;
58657;SDS011;44428;45.630;13.786;2022-09-09T06:28:40;8.40;;;2.55;;
58657;SDS011;44428;45.630;13.786;2022-09-09T06:31:09;7.78;;;2.38;;
58657;SDS011;44428;45.630;13.786;2022-09-09T06:33:37;8.25;;;2.60;;
58657;SDS011;44428;45.630;13.786;2022-09-09T06:36:07;5.53;;;2.50;;
58657;SDS011;44428;45.630;13.786;2022-09-09T06:38:37;6.40;;;2.10;;
58657;SDS011;44428;45.630;13.786;2022-09-09T06:41:04;5.05;;;2.30;;
58657;SDS011;44428;45.630;13.786;2022-09-09T06:43:31;5.43;;;1.98;;
58657;SDS011;44428;45.630;13.786;2022-09-09T06:46:00;8.55;;;2.17;;
58657;SDS011;44428;45.630;13.786;2022-09-09T06:48:27;8.13;;;2.58;;
58657;SDS011;44428;45.630;13.786;2022-09-09T06:51:27;9.82;;;2.33;;
58657;SDS011;44428;45.630;13.786;2022-09-09T06:53:50;4.65;;;1.80;;
58657;SDS011;44428;45.630;13.786;2022-09-09T06:58:48;7.38;;;1.90;;
58657;SDS011;44428;45.630;13.786;2022-09-09T07:01:23;7.32;;;1.95;;
58657;SDS011;44428;45.630;13.786;2022-09-09T07:03:51;7.93;;;2.30;;
58657;SDS011;44428;45.630;13.786;2022-09-09T07:06:20;5.05;;;2.10;;
58657;SDS011;44428;45.630;13.786;2022-09-09T07:08:50;4.68;;;1.90;;
58657;SDS011;44428;45.630;13.786;2022-09-09T07:11:23;4.95;;;2.13;;
58657;SDS011;44428;45.630;13.786;2022-09-09T07:13:52;7.05;;;1.70;;
58657;SDS011;44428;45.630;13.786;2022-09-09T07:16:19;3.95;;;1.63;;
58657;SDS011;44428;45.630;13.786;2022-09-09T07:18:48;6.15;;;1.75;;
58657;SDS011;44428;45.630;13.786;2022-09-09T07:21:16;6.95;;;1.70;;
58657;SDS011;44428;45.630;13.786;2022-09-09T07:23:42;6.68;;;2.08;;
58657;SDS011;44428;45.630;13.786;2022-09-09T07:26:13;5.25;;;1.80;;
58657;SDS011;44428;45.630;13.786;2022-09-09T07:28:40;5.68;;;2.08;;
58657;SDS011;44428;45.630;13.786;2022-09-09T07:31:08;6.65;;;1.92;;
58657;SDS011;44428;45.630;13.786;2022-09-09T07:33:39;4.68;;;1.80;;
58657;SDS011;44428;45.630;13.786;2022-09-09T07:38:37;8.18;;;1.77;;
58657;SDS011;44428;45.630;13.786;2022-09-09T07:41:08;5.05;;;1.60;;
58657;SDS011;44428;45.630;13.786;2022-09-09T07:43:38;5.47;;;1.70;;
58657;SDS011;44428;45.630;13.786;2022-09-09T07:46:05;4.80;;;1.65;;
58657;SDS011;44428;45.630;13.786;2022-09-09T07:48:32;5.53;;;1.92;;
58657;SDS011;44428;45.630;13.786;2022-09-09T07:51:07;7.45;;;2.00;;
58657;SDS011;44428;45.630;13.786;2022-09-09T07:53:37;6.40;;;1.92;;
58657;SDS011;44428;45.630;13.786;2022-09-09T07:56:04;6.40;;;2.03;;
58657;SDS011;44428;45.630;13.786;2022-09-09T07:58:33;7.77;;;2.37;;
58657;SDS011;44428;45.630;13.786;2022-09-09T08:00:58;5.22;;;1.77;;
58657;SDS011;44428;45.630;13.786;2022-09-09T08:03:24;6.60;;;2.05;;
58657;SDS011;44428;45.630;13.786;2022-09-09T08:05:50;6.78;;;2.05;;
58657;SDS011;44428;45.630;13.786;2022-09-09T08:08:17;6.82;;;1.80;;
58657;SDS011;44428;45.630;13.786;2022-09-09T08:10:42;7.53;;;2.25;;
58657;SDS011;44428;45.630;13.786;2022-09-09T08:13:09;9.02;;;2.00;;
58657;SDS011;44428;45.630;13.786;2022-09-09T08:15:35;5.35;;;2.08;;
58657;SDS011;44428;45.630;13.786;2022-09-09T08:18:02;7.43;;;2.00;;
58657;SDS011;44428;45.630;13.786;2022-09-09T08:20:29;5.72;;;2.38;;
58657;SDS011;44428;45.630;13.786;2022-09-09T08:22:56;7.75;;;2.10;;
58657;SDS011;44428;45.630;13.786;2022-09-09T08:25:22;3.70;;;2.05;;
58657;SDS011;44428;45.630;13.786;2022-09-09T08:27:47;6.80;;;2.38;;
58657;SDS011;44428;45.630;13.786;2022-09-09T08:30:14;5.75;;;2.45;;
58657;SDS011;44428;45.630;13.786;2022-09-09T08:32:40;4.38;;;2.38;;
58657;SDS011;44428;45.630;13.786;2022-09-09T08:35:06;8.95;;;2.50;;
58657;SDS011;44428;45.630;13.786;2022-09-09T08:37:33;7.00;;;2.22;;
58657;SDS011;44428;45.630;13.786;2022-09-09T08:39:58;7.18;;;2.67;;
58657;SDS011;44428;45.630;13.786;2022-09-09T08:42:30;5.78;;;2.80;;
58657;SDS011;44428;45.630;13.786;2022-09-09T08:48:06;8.55;;;2.67;;
58657;SDS011;44428;45.630;13.786;2022-09-09T08:50:37;8.02;;;2.97;;
58657;SDS011;44428;45.630;13.786;2022-09-09T08:55:53;6.40;;;2.22;;
58657;SDS011;44428;45.630;13.786;2022-09-09T08:58:51;4.93;;;2.30;;
58657;SDS011;44428;45.630;13.786;2022-09-09T09:12:16;9.10;;;2.42;;
58657;SDS011;44428;45.630;13.786;2022-09-09T09:14:46;8.90;;;2.58;;
58657;SDS011;44428;45.630;13.786;2022-09-09T09:17:14;9.77;;;2.70;;
58657;SDS011;44428;45.630;13.786;2022-09-09T09:19:44;7.40;;;2.40;;
58657;SDS011;44428;45.630;13.786;2022-09-09T09:27:33;18.33;;;3.63;;
58657;SDS011;44428;45.630;13.786;2022-09-09T09:32:38;19.60;;;5.38;;
58657;SDS011;44428;45.630;13.786;2022-09-09T09:35:09;26.52;;;6.22;;
58657;SDS011;44428;45.630;13.786;2022-09-09T09:37:37;25.83;;;3.97;;
58657;SDS011;44428;45.630;13.786;2022-09-09T09:40:10;21.30;;;4.25;;
58657;SDS011;44428;45.630;13.786;2022-09-09T09:42:38;21.13;;;5.32;;
58657;SDS011;44428;45.630;13.786;2022-09-09T09:45:41;20.27;;;3.10;;
58657;SDS011;44428;45.630;13.786;2022-09-09T09:48:09;5.97;;;1.77;;
58657;SDS011;44428;45.630;13.786;2022-09-09T09:51:19;7.82;;;1.88;;
58657;SDS011;44428;45.630;13.786;2022-09-09T09:53:31;4.32;;;1.88;;
58657;SDS011;44428;45.630;13.786;2022-09-09T09:56:00;8.43;;;2.13;;
58657;SDS011;44428;45.630;13.786;2022-09-09T09:58:30;5.38;;;1.98;;
58657;SDS011;44428;45.630;13.786;2022-09-09T10:01:00;4.55;;;1.70;;
58657;SDS011;44428;45.630;13.786;2022-09-09T10:03:33;4.65;;;1.70;;
58657;SDS011;44428;45.630;13.786;2022-09-09T10:06:03;6.40;;;2.20;;
58657;SDS011;44428;45.630;13.786;2022-09-09T10:08:32;4.57;;;1.65;;
58657;SDS011;44428;45.630;13.786;2022-09-09T10:29:55;10.13;;;1.20;;
58657;SDS011;44428;45.630;13.786;2022-09-09T10:39:01;2.60;;;1.17;;
58657;SDS011;44428;45.630;13.786;2022-09-09T10:54:30;3.15;;;1.10;;
58657;SDS011;44428;45.630;13.786;2022-09-09T10:57:03;2.88;;;1.30;;
58657;SDS011;44428;45.630;13.786;2022-09-09T10:59:36;5.20;;;1.63;;
58657;SDS011;44428;45.630;13.786;2022-09-09T11:02:11;1.88;;;1.02;;
58657;SDS011;44428;45.630;13.786;2022-09-09T11:04:45;2.72;;;1.10;;
58657;SDS011;44428;45.630;13.786;2022-09-09T11:10:43;1.98;;;0.93;;
58657;SDS011;44428;45.630;13.786;2022-09-09T11:13:18;3.97;;;0.90;;
58657;SDS011;44428;45.630;13.786;2022-09-09T11:18:43;5.25;;;1.40;;
58657;SDS011;44428;45.630;13.786;2022-09-09T11:21:22;3.17;;;1.10;;
58657;SDS011;44428;45.630;13.786;2022-09-09T11:26:40;1.88;;;1.00;;
58657;SDS011;44428;45.630;13.786;2022-09-09T11:35:01;3.58;;;1.23;;
58657;SDS011;44428;45.630;13.786;2022-09-09T11:38:05;2.97;;;0.93;;
58657;SDS011;44428;45.630;13.786;2022-09-09T11:41:07;3.33;;;1.13;;
58657;SDS011;44428;45.630;13.786;2022-09-09T11:43:42;3.63;;;1.13;;
58657;SDS011;44428;45.630;13.786;2022-09-09T11:46:10;3.90;;;0.90;;
58657;SDS011;44428;45.630;13.786;2022-09-09T11:49:28;4.60;;;1.52;;
58657;SDS011;44428;45.630;13.786;2022-09-09T11:51:52;4.38;;;1.20;;
58657;SDS011;44428;45.630;13.786;2022-09-09T11:54:28;8.20;;;1.50;;
58657;SDS011;44428;45.630;13.786;2022-09-09T11:56:57;3.85;;;1.08;;
58657;SDS011;44428;45.630;13.786;2022-09-09T11:59:24;3.55;;;1.40;;
58657;SDS011;44428;45.630;13.786;2022-09-09T12:02:01;4.47;;;1.30;;
58657;SDS011;44428;45.630;13.786;2022-09-09T12:04:39;4.70;;;1.17;;
58657;SDS011;44428;45.630;13.786;2022-09-09T12:09:52;3.97;;;1.30;;
58657;SDS011;44428;45.630;13.786;2022-09-09T12:12:33;3.13;;;1.30;;
58657;SDS011;44428;45.630;13.786;2022-09-09T12:15:03;4.40;;;1.17;;
58657;SDS011;44428;45.630;13.786;2022-09-09T12:17:44;5.78;;;1.17;;
58657;SDS011;44428;45.630;13.786;2022-09-09T12:22:43;2.70;;;1.17;;
58657;SDS011;44428;45.630;13.786;2022-09-09T12:31:20;2.78;;;0.98;;
58657;SDS011;44428;45.630;13.786;2022-09-09T12:33:33;2.58;;;1.17;;
58657;SDS011;44428;45.630;13.786;2022-09-09T12:36:00;3.53;;;1.10;;
58657;SDS011;44428;45.630;13.786;2022-09-09T12:38:35;3.97;;;1.10;;
58657;SDS011;44428;45.630;13.786;2022-09-09T12:41:03;3.22;;;1.05;;
58657;SDS011;44428;45.630;13.786;2022-09-09T12:43:29;3.00;;;1.20;;
58657;SDS011;44428;45.630;13.786;2022-09-09T12:45:56;4.35;;;1.27;;
58657;SDS011;44428;45.630;13.786;2022-09-09T12:48:36;3.65;;;1.00;;
58657;SDS011;44428;45.630;13.786;2022-09-09T12:51:07;4.88;;;1.50;;
58657;SDS011;44428;45.630;13.786;2022-09-09T12:53:49;4.15;;;1.20;;
58657;SDS011;44428;45.630;13.786;2022-09-09T12:56:22;5.20;;;1.45;;
58657;SDS011;44428;45.630;13.786;2022-09-09T12:58:52;2.55;;;1.10;;
58657;SDS011;44428;45.630;13.786;2022-09-09T13:01:25;3.20;;;1.10;;
58657;SDS011;44428;45.630;13.786;2022-09-09T13:03:51;3.03;;;1.10;;
58657;SDS011;44428;45.630;13.786;2022-09-09T13:06:25;2.95;;;1.25;;
58657;SDS011;44428;45.630;13.786;2022-09-09T13:08:52;2.78;;;0.88;;
58657;SDS011;44428;45.630;13.786;2022-09-09T13:11:23;7.15;;;1.40;;
58657;SDS011;44428;45.630;13.786;2022-09-09T13:13:54;5.85;;;1.27;;
58657;SDS011;44428;45.630;13.786;2022-09-09T13:16:34;3.03;;;1.10;;
58657;SDS011;44428;45.630;13.786;2022-09-09T13:19:02;9.77;;;1.50;;
58657;SDS011;44428;45.630;13.786;2022-09-09T13:21:42;2.08;;;1.10;;
58657;SDS011;44428;45.630;13.786;2022-09-09T13:24:24;3.20;;;1.05;;
58657;SDS011;44428;45.630;13.786;2022-09-09T13:26:58;4.50;;;1.30;;
58657;SDS011;44428;45.630;13.786;2022-09-09T13:29:27;3.28;;;1.23;;
58657;SDS011;44428;45.630;13.786;2022-09-09T13:31:53;4.70;;;1.25;;
58657;SDS011;44428;45.630;13.786;2022-09-09T13:34:29;4.40;;;1.25;;
58657;SDS011;44428;45.630;13.786;2022-09-09T13:37:17;3.35;;;1.20;;
58657;SDS011;44428;45.630;13.786;2022-09-09T13:39:50;4.00;;;1.30;;
58657;SDS011;44428;45.630;13.786;2022-09-09T13:42:25;4.18;;;1.25;;
58657;SDS011;44428;45.630;13.786;2022-09-09T13:44:53;4.03;;;1.02;;
58657;SDS011;44428;45.630;13.786;2022-09-09T13:47:21;6.40;;;1.70;;
58657;SDS011;44428;45.630;13.786;2022-09-09T13:49:54;4.25;;;1.80;;
58657;SDS011;44428;45.630;13.786;2022-09-09T13:52:20;3.67;;;1.65;;
58657;SDS011;44428;45.630;13.786;2022-09-09T13:54:48;3.72;;;1.38;;
58657;SDS011;44428;45.630;13.786;2022-09-09T13:57:19;4.57;;;1.50;;
58657;SDS011;44428;45.630;13.786;2022-09-09T13:59:50;4.93;;;1.40;;
58657;SDS011;44428;45.630;13.786;2022-09-09T14:02:18;4.55;;;1.60;;
58657;SDS011;44428;45.630;13.786;2022-09-09T14:04:44;5.85;;;1.80;;
58657;SDS011;44428;45.630;13.786;2022-09-09T14:07:19;7.95;;;2.10;;
58657;SDS011;44428;45.630;13.786;2022-09-09T14:09:45;5.40;;;1.40;;
58657;SDS011;44428;45.630;13.786;2022-09-09T14:12:15;5.05;;;1.70;;
58657;SDS011;44428;45.630;13.786;2022-09-09T14:14:41;5.40;;;1.60;;
58657;SDS011;44428;45.630;13.786;2022-09-09T14:17:08;6.03;;;1.55;;
58657;SDS011;44428;45.630;13.786;2022-09-09T14:19:34;3.72;;;1.55;;
58657;SDS011;44428;45.630;13.786;2022-09-09T14:22:00;5.65;;;1.60;;
58657;SDS011;44428;45.630;13.786;2022-09-09T14:24:26;5.45;;;1.40;;
58657;SDS011;44428;45.630;13.786;2022-09-09T14:26:53;4.70;;;1.75;;
58657;SDS011;44428;45.630;13.786;2022-09-09T14:29:19;4.47;;;1.63;;
58657;SDS011;44428;45.630;13.786;2022-09-09T14:31:45;6.35;;;1.73;;
58657;SDS011;44428;45.630;13.786;2022-09-09T14:34:10;8.98;;;1.63;;
58657;SDS011;44428;45.630;13.786;2022-09-09T14:36:37;8.52;;;1.92;;
58657;SDS011;44428;45.630;13.786;2022-09-09T14:39:03;8.25;;;1.60;;
58657;SDS011;44428;45.630;13.786;2022-09-09T14:41:30;7.75;;;2.15;;
58657;SDS011;44428;45.630;13.786;2022-09-09T14:43:56;6.63;;;1.80;;
58657;SDS011;44428;45.630;13.786;2022-09-09T14:46:22;5.88;;;1.58;;
58657;SDS011;44428;45.630;13.786;2022-09-09T14:48:48;9.25;;;2.30;;
58657;SDS011;44428;45.630;13.786;2022-09-09T14:51:15;4.75;;;1.90;;
58657;SDS011;44428;45.630;13.786;2022-09-09T14:53:45;5.03;;;1.77;;
58657;SDS011;44428;45.630;13.786;2022-09-09T14:56:15;9.02;;;2.15;;
58657;SDS011;44428;45.630;13.786;2022-09-09T14:58:43;5.65;;;1.95;;
58657;SDS011;44428;45.630;13.786;2022-09-09T15:01:14;8.52;;;2.00;;
58657;SDS011;44428;45.630;13.786;2022-09-09T15:03:41;4.82;;;1.98;;
58657;SDS011;44428;45.630;13.786;2022-09-09T15:06:13;8.60;;;2.00;;
58657;SDS011;44428;45.630;13.786;2022-09-09T15:08:43;4.00;;;1.48;;
58657;SDS011;44428;45.630;13.786;2022-09-09T15:11:10;6.70;;;1.48;;
58657;SDS011;44428;45.630;13.786;2022-09-09T15:13:38;8.80;;;1.50;;
58657;SDS011;44428;45.630;13.786;2022-09-09T15:18:31;6.28;;;1.77;;
58657;SDS011;44428;45.630;13.786;2022-09-09T15:21:01;5.55;;;1.52;;
58657;SDS011;44428;45.630;13.786;2022-09-09T15:25:54;6.03;;;1.88;;
58657;SDS011;44428;45.630;13.786;2022-09-09T15:28:21;5.60;;;1.50;;
58657;SDS011;44428;45.630;13.786;2022-09-09T15:30:51;7.10;;;1.98;;
58657;SDS011;44428;45.630;13.786;2022-09-09T15:33:18;5.78;;;1.50;;
58657;SDS011;44428;45.630;13.786;2022-09-09T15:35:45;10.00;;;2.15;;
58657;SDS011;44428;45.630;13.786;2022-09-09T15:38:11;6.32;;;1.83;;
58657;SDS011;44428;45.630;13.786;2022-09-09T15:40:38;11.27;;;2.38;;
58657;SDS011;44428;45.630;13.786;2022-09-09T15:43:05;13.43;;;3.00;;
58657;SDS011;44428;45.630;13.786;2022-09-09T15:45:32;22.83;;;5.45;;
58657;SDS011;44428;45.630;13.786;2022-09-09T15:48:02;19.20;;;3.88;;
58657;SDS011;44428;45.630;13.786;2022-09-09T15:50:28;11.10;;;2.70;;
58657;SDS011;44428;45.630;13.786;2022-09-09T15:52:56;11.48;;;2.78;;
58657;SDS011;44428;45.630;13.786;2022-09-09T15:55:22;8.90;;;2.70;;
58657;SDS011;44428;45.630;13.786;2022-09-09T15:57:49;6.72;;;2.50;;
58657;SDS011;44428;45.630;13.786;2022-09-09T16:00:18;6.05;;;2.33;;
58657;SDS011;44428;45.630;13.786;2022-09-09T16:02:46;8.35;;;2.60;;
58657;SDS011;44428;45.630;13.786;2022-09-09T16:05:12;5.13;;;1.70;;
58657;SDS011;44428;45.630;13.786;2022-09-09T16:07:38;7.25;;;2.10;;
58657;SDS011;44428;45.630;13.786;2022-09-09T16:10:04;8.15;;;2.00;;
58657;SDS011;44428;45.630;13.786;2022-09-09T16:12:31;7.57;;;2.72;;
58657;SDS011;44428;45.630;13.786;2022-09-09T16:14:56;5.70;;;2.13;;
58657;SDS011;44428;45.630;13.786;2022-09-09T16:17:22;5.93;;;1.73;;
58657;SDS011;44428;45.630;13.786;2022-09-09T16:19:48;4.75;;;2.15;;
58657;SDS011;44428;45.630;13.786;2022-09-09T16:22:13;8.25;;;2.42;;
58657;SDS011;44428;45.630;13.786;2022-09-09T16:24:40;5.78;;;1.92;;
58657;SDS011;44428;45.630;13.786;2022-09-09T16:27:06;6.05;;;1.90;;
58657;SDS011;44428;45.630;13.786;2022-09-09T16:29:32;8.25;;;2.25;;
58657;SDS011;44428;45.630;13.786;2022-09-09T16:31:57;6.60;;;1.70;;
58657;SDS011;44428;45.630;13.786;2022-09-09T16:34:25;5.32;;;1.45;;
58657;SDS011;44428;45.630;13.786;2022-09-09T16:36:51;6.43;;;1.70;;
58657;SDS011;44428;45.630;13.786;2022-09-09T16:39:17;5.78;;;2.17;;
58657;SDS011;44428;45.630;13.786;2022-09-09T16:41:45;4.78;;;1.52;;
58657;SDS011;44428;45.630;13.786;2022-09-09T16:44:13;7.45;;;1.50;;
58657;SDS011;44428;45.630;13.786;2022-09-09T16:46:41;5.10;;;1.90;;
58657;SDS011;44428;45.630;13.786;2022-09-09T16:49:08;4.47;;;1.63;;
58657;SDS011;44428;45.630;13.786;2022-09-09T16:51:40;5.18;;;1.45;;
58657;SDS011;44428;45.630;13.786;2022-09-09T16:54:07;4.70;;;1.42;;
58657;SDS011;44428;45.630;13.786;2022-09-09T16:56:35;4.05;;;1.45;;
58657;SDS011;44428;45.630;13.786;2022-09-09T16:59:10;5.15;;;1.88;;
58657;SDS011;44428;45.630;13.786;2022-09-09T17:01:38;6.25;;;2.10;;
58657;SDS011;44428;45.630;13.786;2022-09-09T17:04:06;6.55;;;2.00;;
58657;SDS011;44428;45.630;13.786;2022-09-09T17:06:34;8.48;;;2.33;;
58657;SDS011;44428;45.630;13.786;2022-09-09T17:09:03;8.88;;;2.88;;
58657;SDS011;44428;45.630;13.786;2022-09-09T17:11:33;8.98;;;2.15;;
58657;SDS011;44428;45.630;13.786;2022-09-09T17:14:00;7.22;;;2.38;;
58657;SDS011;44428;45.630;13.786;2022-09-09T17:16:27;11.68;;;2.70;;
58657;SDS011;44428;45.630;13.786;2022-09-09T17:18:56;10.60;;;3.20;;
58657;SDS011;44428;45.630;13.786;2022-09-09T17:21:24;12.00;;;3.70;;
58657;SDS011;44428;45.630;13.786;2022-09-09T17:23:51;9.75;;;6.97;;
58657;SDS011;44428;45.630;13.786;2022-09-09T17:26:20;35.08;;;21.25;;
58657;SDS011;44428;45.630;13.786;2022-09-09T17:28:47;12.45;;;5.97;;